Terminal Aerodrome Forecast
Issued by NWS

Current Version | Previous Version | Graphics & Text | Print | Product List | Glossary On
Versions: 1 2 3 4 5 6 7 8 9 10 11 12 13 14 15 16 17
000
FTUS41 KILN 251132
TAFLCK
TAF
KLCK 251132Z 2512/2612 18005KT P6SM SCT250
     FM251500 18008KT P6SM VCSH BKN060
     FM252000 20010KT P6SM SCT070
     FM260100 17004KT P6SM SCT150=

USA.gov is the U.S. government's official web portal to all federal, state and local government web resources and services.